• Join FlightAware (Why Join?)
  • Login
  • US Flag 
10:52PM EST


 

Airport Tracker/Info


-or-


 

Live Flight TrackerFlight Track Log ✈ UAL4849 ✈ 20-May-2013 ✈ KBWI - KCLE

Flight Track Log - Related Links

Times and Time Zones

All times are in EDT time to prevent confusion due to time zone crossing. See the UAL4849 flight status page for this flight to view local times or setup timezone preferences in your user account.

Time Position Orientation Groundspeed Altitude Reporting Facility
EDT Latitude Longitude Course Direction KTS MPH feet Rate Location/Type
02:05PM 39.1833 -76.7000 322° Northwest 149 171 1,100  Level Potomac TRACON
02:06PM 39.2167 -76.7333 322° Northwest 173 199 2,400 1,260 Climbing Potomac TRACON
02:07PM 39.2667 -76.7833 322° Northwest 179 206 3,700 1,320 Climbing Potomac TRACON
02:08PM 39.2833 -76.8333 293° West 169 194 5,100 1,320 Climbing Potomac TRACON
02:09PM 39.2833 -76.9000 270° West 170 196 6,400 1,260 Climbing Potomac TRACON
02:10PM 39.3000 -76.9500 293° West 164 189 7,700 1,140 Climbing Potomac TRACON
02:11PM 39.3000 -77.0167 270° West 169 194 8,700 900 Climbing Potomac TRACON
02:12PM 39.3167 -77.0667 293° West 182 209 9,600 840 Climbing Potomac TRACON
02:13PM 39.3500 -77.1167 311° West 195 224 10,400 900 Climbing Potomac TRACON
02:14PM 39.3833 -77.1833 303° West 193 222 11,400 840 Climbing Potomac TRACON
02:15PM 39.4167 -77.2500 303° West 199 229 12,100 600 Climbing Potomac TRACON
02:16PM 39.4500 -77.3000 311° West 210 242 12,700 600 Climbing Potomac TRACON
02:18PM 39.4939 -77.4014 299° West 214 246 13,800 660 Climbing Washington Center
02:19PM 39.5261 -77.4642 304° West 214 246 14,500 660 Climbing Washington Center
02:20PM 39.5586 -77.5269 304° West 214 246 15,200 660 Climbing Washington Center
02:21PM 39.5889 -77.5897 302° West 214 246 15,900 660 Climbing Washington Center
02:22PM 39.6211 -77.6525 304° West 214 246 16,600 660 Climbing Washington Center
02:23PM 39.6511 -77.7153 302° West 214 246 17,300 600 Climbing Washington Center
02:24PM 39.6794 -77.7756 301° West 214 246 17,900 600 Climbing Washington Center
02:26PM 39.7544 -77.9206 304° West 196 226 19,500 600 Climbing Cleveland Center
02:27PM 39.7853 -77.9814 303° West 196 226 20,000 240 Climbing Cleveland Center
02:28PM 39.8181 -78.0478 303° West 202 232 20,000  Level Cleveland Center
02:29PM 39.8528 -78.1167 303° West 221 254 20,000  Level Cleveland Center
02:30PM 39.9003 -78.1853 312° West 235 270 20,000  Level Cleveland Center
02:31PM 39.9475 -78.2542 312° West 250 288 20,000  Level Cleveland Center
02:32PM 39.9950 -78.3367 307° West 255 293 20,000  Level Cleveland Center
02:33PM 40.0403 -78.4108 309° West 260 299 20,000  Level Cleveland Center
02:34PM 40.0875 -78.4828 311° West 260 299 20,000  Level Cleveland Center
02:35PM 40.1303 -78.5464 311° West 260 299 20,000  Level Cleveland Center
02:36PM 40.1753 -78.6186 309° West 260 299 20,000  Level Cleveland Center
02:37PM 40.2225 -78.6906 311° West 260 299 20,000  Level Cleveland Center
02:38PM 40.2672 -78.7600 310° West 255 293 20,000  Level Cleveland Center
02:39PM 40.3142 -78.8294 312° West 255 293 20,000  Level Cleveland Center
02:40PM 40.3592 -78.9075 307° West 255 293 20,000  Level Cleveland Center
02:41PM 40.4000 -78.9856 305° West 260 299 20,000  Level Cleveland Center
02:42PM 40.4425 -79.0581 308° West 265 305 20,000  Level Cleveland Center
02:43PM 40.4853 -79.1364 306° West 265 305 20,000  Level Cleveland Center
02:44PM 40.5258 -79.2092 306° West 260 299 20,000  Level Cleveland Center
02:45PM 40.5683 -79.2847 307° West 260 299 20,000  Level Cleveland Center
02:46PM 40.6131 -79.3606 308° West 260 299 20,000  Level Cleveland Center
02:47PM 40.6556 -79.4336 307° West 260 299 20,000  Level Cleveland Center
02:48PM 40.6981 -79.5094 306° West 260 299 20,000  Level Cleveland Center
02:49PM 40.7403 -79.5856 306° West 260 299 20,000  Level Cleveland Center
02:50PM 40.7806 -79.6619 305° West 260 299 20,000  Level Cleveland Center
02:51PM 40.8228 -79.7353 307° West 260 299 20,000  Level Cleveland Center
02:52PM 40.8631 -79.8117 305° West 260 299 20,000 -240 Level Cleveland Center
02:53PM 40.9072 -79.8881 307° West 260 299 19,600 -720 Descending Cleveland Center
02:54PM 40.9514 -79.9700 306° West 265 305 18,600 -960 Descending Cleveland Center
02:55PM 41.0000 -80.0550 307° West 275 316 17,700 -960 Descending Cleveland Center
02:56PM 41.0439 -80.1428 304° West 286 329 16,700 -960 Descending Cleveland Center
02:57PM 41.0944 -80.2306 307° West 286 329 15,800 -900 Descending Cleveland Center
02:58PM 41.1406 -80.3158 306° West 286 329 15,000 -900 Descending Cleveland Center
02:59PM 41.1844 -80.4039 304° West 286 329 14,100 -780 Descending Cleveland Center
03:00PM 41.2325 -80.4892 307° West 286 329 13,500 -600 Descending Cleveland Center
03:01PM 41.2761 -80.5747 304° West 278 320 12,900 -600 Descending Cleveland Center
03:02PM 41.3219 -80.6578 306° West 283 326 12,300 -600 Descending Cleveland Center
03:03PM 41.3617 -80.7547 299° West 278 320 11,700 -600 Descending Cleveland Center
03:04PM 41.3947 -80.8433 296° West 273 314 11,100 -720 Descending Cleveland Center
03:05PM 41.4156 -80.9072 294° West 271 312 10,500 -720 Descending Cleveland Center
03:05PM 41.4300 -80.9375 302° West 273 314 10,400 -600 Descending Cleveland Center
03:06PM 41.4506 -80.9903 297° West 277 319 10,000 -600 Descending Cleveland Center
03:06PM 41.4631 -81.0236 297° West 273 314 9,800 -660 Descending Cleveland Center
03:07PM 41.4794 -81.0736 294° West 266 306 9,400 -720 Descending Cleveland Center
03:07PM 41.4961 -81.1128 300° West 273 314 9,100 -540 Descending Cleveland Center
03:08PM 41.5144 -81.1572 299° West 249 287 8,900 -120 Descending Cleveland Center
03:08PM 41.5228 -81.1961 286° West 257 296 9,000 -480 Climbing Cleveland Center
03:09PM 41.5347 -81.2517 286° West 244 281 8,400 -900 Descending Cleveland Center
03:09PM 41.5431 -81.2822 290° West 251 289 8,100 -1,020 Descending Cleveland Center
03:10PM 41.5550 -81.3433 285° West 254 292 7,400 -1,020 Descending Cleveland Center
03:10PM 41.5569 -81.3739 275° West 251 289 7,100 -1,140 Descending Cleveland Center
03:11PM 41.5586 -81.4378 272° West 253 291 6,300 -1,140 Descending Cleveland Center
03:11PM 41.5564 -81.4656 264° West 251 289 6,000 -360 Descending Cleveland Center
03:12PM 41.5494 -81.5347 262° West 240 276 5,900 -720 Descending Cleveland Center
03:13PM 41.5364 -81.6206 259° West 243 280 4,800 -1,260 Descending Cleveland Center
03:13PM 41.5319 -81.6428 255° West 251 289 4,400 -1,320 Descending Cleveland Center
03:14PM 41.5125 -81.6978 245° Southwest 222 255 3,500 -1,200 Descending Cleveland Center
03:14PM 41.5000 -81.7142 224° Southwest 234 269 3,200 -1,020 Descending Cleveland Center
03:15PM 41.4767 -81.7500 229° Southwest 187 215 2,600 -900 Descending Cleveland Center
03:16PM 41.4492 -81.7964 232° Southwest 163 188 1,900 -780 Descending Cleveland Center
03:17PM 41.4217 -81.8347 226° Southwest 124 143 1,100 -720 Descending Cleveland Center
03:19PM 41.4000 -81.8500 255° West  Level FlightAware Approximate
03:26PM 41.4094 -81.8547 255° West  Level Estimated